• Join FlightAware (Why Join?)
  • Login
  • US Flag 
12:31PM EDT


 

Airport Tracker/Info


-or-


 

Live Flight TrackerFlight Track Log ✈ IMG736 ✈ 16-Jun-2013 ✈ KECP - KPDK

Flight Track Log - Related Links

Times and Time Zones

All times are in EDT time to prevent confusion due to time zone crossing. See the IMG736 flight status page for this flight to view local times or setup timezone preferences in your user account.

Time Position Orientation Groundspeed Altitude Reporting Facility
EDT Latitude Longitude Course Direction KTS MPH feet Rate Location/Type
06:21PM 30.3517 -85.7378 19° North 155 178 1,800  Level Jacksonville Center
06:22PM 30.3483 -85.6944 95° East 141 162 2,600 720 Climbing Jacksonville Center
06:23PM 30.5886 -85.7014 19° North  Level Estimated
06:23PM 30.3131 -85.6933 178° South 100 115 3,300  Level Jacksonville Center
06:24PM 30.2775 -85.6947 182° South 107 123 4,000 720 Climbing Jacksonville Center
06:25PM 30.2419 -85.6936 178° South 128 147 4,800 720 Climbing Jacksonville Center
06:26PM 30.2456 -85.7275 277° West 92 106 5,500 600 Climbing Jacksonville Center
06:27PM 30.2853 -85.7189 11° North 61 70 6,100 600 Climbing Jacksonville Center
06:28PM 30.3208 -85.7128 North 96 110 6,800 600 Climbing Jacksonville Center
06:29PM 30.3567 -85.7042 12° North 115 132 7,400 600 Climbing Jacksonville Center
06:30PM 30.3944 -85.6981 North 127 146 8,000 600 Climbing Jacksonville Center
06:31PM 30.4300 -85.6919 North 127 146 8,600 480 Climbing Jacksonville Center
06:32PM 30.4678 -85.6858 North 127 146 9,000 120 Climbing Jacksonville Center
06:33PM 30.5136 -85.6872 359° North 139 160 8,900 -60 Descending Jacksonville Center
06:34PM 30.5594 -85.6886 359° North 153 176 8,900  Level Jacksonville Center
06:34PM 30.5906 -85.6942 351° North 167 192 8,900 60 Level Jacksonville Center
06:35PM 30.6053 -85.6922 North 163 188 9,000  Climbing Jacksonville Center
06:35PM 30.6469 -85.6958 356° North 167 192 8,900 -60 Descending Jacksonville Center
06:37PM 30.6908 -85.6997 356° North 166 191 8,900  Level Jacksonville Center
06:38PM 30.7408 -85.7011 359° North 161 185 8,900  Level Jacksonville Center
06:39PM 30.7889 -85.6978 North 158 182 8,900  Level Jacksonville Center
06:40PM 30.8369 -85.6919 North 156 180 9,000  Climbing Jacksonville Center
06:41PM 30.8767 -85.6956 356° North 152 175 8,900  Descending Jacksonville Center
06:42PM 30.9144 -85.6892 North 158 182 9,000  Climbing Jacksonville Center
06:43PM 30.9583 -85.6783 12° North 158 182 9,000  Level Jacksonville Center
06:44PM 31.0047 -85.6653 14° North 163 188 9,000  Level Jacksonville Center
06:46PM 31.1011 -85.6464 10° North 165 190 9,000 -60 Level Jacksonville Center
06:47PM 31.1494 -85.6356 11° North 167 192 8,900  Descending Jacksonville Center
06:48PM 31.1956 -85.6272 North 167 192 9,000  Climbing Jacksonville Center
06:50PM 31.2814 -85.6053 12° North 152 175 8,900 -60 Descending Jacksonville Center
06:51PM 31.3275 -85.5969 North 160 184 8,900  Level Jacksonville Center
06:52PM 31.3739 -85.5861 11° North 163 188 9,000  Climbing Jacksonville Center
06:53PM 31.4158 -85.5778 10° North 162 186 9,000  Level Jacksonville Center
06:54PM 31.4597 -85.5667 12° North 155 178 9,000  Level Jacksonville Center
06:55PM 31.5039 -85.5583 North 161 185 9,000 -60 Level Jacksonville Center
06:56PM 31.5500 -85.5475 11° North 168 193 8,900  Descending Jacksonville Center
06:57PM 31.5961 -85.5389 North 167 192 9,000  Climbing Jacksonville Center
06:58PM 31.6422 -85.5256 14° North 170 196 9,000  Level Jacksonville Center
06:59PM 31.7167 -85.5167 North 171 197 9,000  Level Atlanta TRACON
07:00PM 31.7667 -85.5000 16° North 168 193 9,000  Level Atlanta TRACON
07:01PM 31.8167 -85.4833 16° North 173 199 9,000  Level Atlanta TRACON
07:02PM 31.8500 -85.4833 360° North 172 198 9,000  Level Atlanta TRACON
07:03PM 31.9000 -85.4667 16° North 170 196 9,000  Level Atlanta TRACON
07:04PM 31.9500 -85.4667 360° North 170 196 9,000  Level Atlanta TRACON
07:05PM 31.9833 -85.4500 23° Northeast 166 191 9,000  Level Atlanta TRACON
07:06PM 32.0333 -85.4333 16° North 169 194 9,000  Level Atlanta TRACON
07:07PM 32.0833 -85.4167 16° North 170 196 9,000  Level Atlanta TRACON
07:08PM 32.1167 -85.3833 40° Northeast 170 196 9,000  Level Atlanta TRACON
07:09PM 32.1667 -85.3667 16° North 171 197 9,000  Level Atlanta TRACON
07:10PM 32.2167 -85.3333 29° Northeast 172 198 9,000  Level Atlanta TRACON
07:11PM 32.2500 -85.3167 23° Northeast 169 194 9,000  Level Atlanta TRACON
07:12PM 32.2833 -85.2833 40° Northeast 167 192 9,000  Level Atlanta TRACON
07:13PM 32.3333 -85.2667 16° North 165 190 9,000  Level Atlanta TRACON
07:14PM 32.3667 -85.2333 40° Northeast 167 192 9,000  Level Atlanta TRACON
07:15PM 32.4167 -85.2000 29° Northeast 170 196 9,000  Level Atlanta TRACON
07:16PM 32.4500 -85.1833 23° Northeast 172 198 9,000  Level Atlanta TRACON
07:17PM 32.5000 -85.1500 29° Northeast 173 199 9,000  Level Atlanta TRACON
07:18PM 32.5333 -85.1333 23° Northeast 172 198 9,000  Level Atlanta TRACON
07:19PM 32.5833 -85.1000 29° Northeast 173 199 9,000  Level Atlanta TRACON
07:20PM 32.6167 -85.0667 40° Northeast 173 199 9,000  Level Atlanta TRACON
07:21PM 32.6667 -85.0500 16° North 174 200 9,000  Level Atlanta TRACON
07:22PM 32.7000 -85.0333 23° Northeast 172 198 9,000  Level Atlanta TRACON
07:23PM 32.7500 -85.0000 29° Northeast 172 198 9,000 -120 Level Atlanta TRACON
07:24PM 32.7833 -84.9667 40° Northeast 175 201 8,800 -300 Descending Atlanta TRACON
07:25PM 32.8333 -84.9500 16° North 187 215 8,400 -480 Descending Atlanta TRACON
07:26PM 32.8833 -84.9167 29° Northeast 189 217 7,900 -480 Descending Atlanta TRACON
07:27PM 32.9333 -84.8667 40° Northeast 192 221 7,400 -480 Descending Atlanta TRACON
07:28PM 32.9667 -84.8333 40° Northeast 189 217 6,900 -540 Descending Atlanta TRACON
07:29PM 33.0000 -84.8000 40° Northeast 186 214 6,400 -540 Descending Atlanta TRACON
07:30PM 33.0500 -84.7500 40° Northeast 185 213 5,900 -480 Descending Atlanta TRACON
07:31PM 33.0833 -84.7167 40° Northeast 188 216 5,500 -420 Descending Atlanta TRACON
07:32PM 33.1333 -84.6833 29° Northeast 187 215 5,100 -300 Descending Atlanta TRACON
07:33PM 33.1667 -84.6333 51° Northeast 177 204 5,000 -60 Descending Atlanta TRACON
07:34PM 33.2000 -84.6000 40° Northeast 171 197 5,000 -60 Level Atlanta TRACON
07:35PM 33.2333 -84.5667 40° Northeast 172 198 4,900 -60 Descending Atlanta TRACON
07:36PM 33.2833 -84.5333 29° Northeast 173 199 4,900  Level Atlanta TRACON
07:37PM 33.3167 -84.5000 40° Northeast 171 197 4,900  Level Atlanta TRACON
07:38PM 33.3500 -84.4667 40° Northeast 170 196 4,900  Level Atlanta TRACON
07:39PM 33.4000 -84.4500 16° North 168 193 4,900  Level Atlanta TRACON
07:40PM 33.4333 -84.4333 23° Northeast 171 197 4,900  Level Atlanta TRACON
07:41PM 33.4833 -84.4167 16° North 171 197 4,900  Level Atlanta TRACON
07:42PM 33.5333 -84.4000 16° North 166 191 4,900  Level Atlanta TRACON
07:43PM 33.5833 -84.4000 360° North 162 186 4,900  Level Atlanta TRACON
07:44PM 33.6167 -84.4167 337° Northwest 169 194 4,900 -120 Level Atlanta TRACON
07:45PM 33.6667 -84.4167 360° North 165 190 4,700 -300 Descending Atlanta TRACON
07:46PM 33.7167 -84.3833 29° Northeast 183 211 4,300 -480 Descending Atlanta TRACON
07:47PM 33.7667 -84.3500 29° Northeast 180 207 3,800 -600 Descending Atlanta TRACON
07:48PM 33.8000 -84.3333 23° Northeast 184 212 3,200 -660 Descending Atlanta TRACON
07:49PM 33.8500 -84.3000 29° Northeast 164 189 2,600 -600 Descending Atlanta TRACON
07:50PM 33.8833 -84.2667 40° Northeast 148 170 2,000 -540 Descending Atlanta TRACON
07:51PM 33.9000 -84.2833 320° Northwest 103 119 1,500 -480 Descending Atlanta TRACON
07:53PM 33.8667 -84.3000 90° East  Level FlightAware Approximate
08:00PM 33.8756 -84.3020 90° East  Level Estimated